aviador You're here:

WAMM Decoded Metar

MANADO in INDONESIA
Report Time2018-07-23 15:30:00
UTC Time2018-07-23 15:45:22
Flight Rules vfr VFR
WindVRB at 02 kt
Visibility9999 m
Phenomena:N/A
Clouds:Scattered 021 Hf
Expected CloudBase > 400 ft AGL from Temp-Dew spread
CeilingNone
Temp25°C (ISA +11)
Dew Point24°C (94% RH)
QNH1012 hPa
Density Alt1,906 ft
Elevation262 ft
Report Wrong Elevation
Raw Report
WAMM 231530Z VRB02KT 9999 SCT021 25/24 Q1012 NOSIG=

Extra information for WAMM:More info

Metar Taf Metar & Taf Last 4 Metars F.Rules Stats Wind Profile Meteogram Temp Stats Airport Information Weather charts Add Link Nearby VenuesMetar ALERT Operation Metar Decoded Social comments